sensor_id;sensor_type;location;lat;lon;timestamp;temperature;humidity
9723;DHT22;4900;49.306;8.500;2024-01-07T00:02:14;6.57;84.08
9723;DHT22;4900;49.306;8.500;2024-01-07T00:04:40;6.57;84.06
9723;DHT22;4900;49.306;8.500;2024-01-07T00:07:06;6.54;84.13
9723;DHT22;4900;49.306;8.500;2024-01-07T00:09:31;6.50;84.14
9723;DHT22;4900;49.306;8.500;2024-01-07T00:11:56;6.51;84.15
9723;DHT22;4900;49.306;8.500;2024-01-07T00:14:22;6.51;84.19
9723;DHT22;4900;49.306;8.500;2024-01-07T00:16:47;6.50;84.09
9723;DHT22;4900;49.306;8.500;2024-01-07T00:19:13;6.53;84.15
9723;DHT22;4900;49.306;8.500;2024-01-07T00:21:38;6.51;84.14
9723;DHT22;4900;49.306;8.500;2024-01-07T00:24:04;6.51;84.12
9723;DHT22;4900;49.306;8.500;2024-01-07T00:26:29;6.51;84.05
9723;DHT22;4900;49.306;8.500;2024-01-07T00:28:55;6.50;84.09
9723;DHT22;4900;49.306;8.500;2024-01-07T00:31:20;6.44;84.18
9723;DHT22;4900;49.306;8.500;2024-01-07T00:33:46;6.48;84.13
9723;DHT22;4900;49.306;8.500;2024-01-07T00:36:11;6.43;84.13
9723;DHT22;4900;49.306;8.500;2024-01-07T00:38:36;6.43;84.23
9723;DHT22;4900;49.306;8.500;2024-01-07T00:41:02;6.43;84.21
9723;DHT22;4900;49.306;8.500;2024-01-07T00:43:27;6.41;84.27
9723;DHT22;4900;49.306;8.500;2024-01-07T00:45:53;6.43;84.28
9723;DHT22;4900;49.306;8.500;2024-01-07T00:48:18;6.47;84.16
9723;DHT22;4900;49.306;8.500;2024-01-07T00:50:43;6.43;84.17
9723;DHT22;4900;49.306;8.500;2024-01-07T00:53:09;6.40;84.10
9723;DHT22;4900;49.306;8.500;2024-01-07T00:55:34;6.38;84.23
9723;DHT22;4900;49.306;8.500;2024-01-07T00:58:02;6.38;84.22
9723;DHT22;4900;49.306;8.500;2024-01-07T01:00:28;6.40;84.24
9723;DHT22;4900;49.306;8.500;2024-01-07T01:02:55;6.40;84.19
9723;DHT22;4900;49.306;8.500;2024-01-07T01:05:20;6.41;84.16
9723;DHT22;4900;49.306;8.500;2024-01-07T01:07:45;6.37;84.13
9723;DHT22;4900;49.306;8.500;2024-01-07T01:10:11;6.38;84.20
9723;DHT22;4900;49.306;8.500;2024-01-07T01:12:36;6.36;84.10
9723;DHT22;4900;49.306;8.500;2024-01-07T01:15:02;6.37;84.08
9723;DHT22;4900;49.306;8.500;2024-01-07T01:17:27;6.41;84.03
9723;DHT22;4900;49.306;8.500;2024-01-07T01:19:53;6.41;83.99
9723;DHT22;4900;49.306;8.500;2024-01-07T01:22:18;6.40;83.91
9723;DHT22;4900;49.306;8.500;2024-01-07T01:24:44;6.34;84.03
9723;DHT22;4900;49.306;8.500;2024-01-07T01:27:12;6.36;83.97
9723;DHT22;4900;49.306;8.500;2024-01-07T01:29:38;6.36;83.91
9723;DHT22;4900;49.306;8.500;2024-01-07T01:32:05;6.30;83.84
9723;DHT22;4900;49.306;8.500;2024-01-07T01:34:31;6.33;83.89
9723;DHT22;4900;49.306;8.500;2024-01-07T01:36:56;6.30;83.91
9723;DHT22;4900;49.306;8.500;2024-01-07T01:39:22;6.29;84.02
9723;DHT22;4900;49.306;8.500;2024-01-07T01:41:47;6.30;83.97
9723;DHT22;4900;49.306;8.500;2024-01-07T01:44:13;6.32;83.93
9723;DHT22;4900;49.306;8.500;2024-01-07T01:46:38;6.32;83.99
9723;DHT22;4900;49.306;8.500;2024-01-07T01:49:04;6.25;84.06
9723;DHT22;4900;49.306;8.500;2024-01-07T01:51:30;6.29;83.86
9723;DHT22;4900;49.306;8.500;2024-01-07T01:53:55;6.30;83.91
9723;DHT22;4900;49.306;8.500;2024-01-07T01:56:24;6.27;83.93
9723;DHT22;4900;49.306;8.500;2024-01-07T01:58:50;6.23;84.03
9723;DHT22;4900;49.306;8.500;2024-01-07T02:01:16;6.29;83.82
9723;DHT22;4900;49.306;8.500;2024-01-07T02:03:42;6.23;83.83
9723;DHT22;4900;49.306;8.500;2024-01-07T02:06:07;6.22;83.76
9723;DHT22;4900;49.306;8.500;2024-01-07T02:08:33;6.22;83.92
9723;DHT22;4900;49.306;8.500;2024-01-07T02:11:14;6.20;84.04
9723;DHT22;4900;49.306;8.500;2024-01-07T02:13:39;6.20;83.89
9723;DHT22;4900;49.306;8.500;2024-01-07T02:16:05;6.19;83.97
9723;DHT22;4900;49.306;8.500;2024-01-07T02:18:30;6.16;83.97
9723;DHT22;4900;49.306;8.500;2024-01-07T02:20:55;6.22;83.86
9723;DHT22;4900;49.306;8.500;2024-01-07T02:23:21;6.17;83.96
9723;DHT22;4900;49.306;8.500;2024-01-07T02:25:46;6.17;83.81
9723;DHT22;4900;49.306;8.500;2024-01-07T02:28:12;6.16;83.87
9723;DHT22;4900;49.306;8.500;2024-01-07T02:30:37;6.12;83.89
9723;DHT22;4900;49.306;8.500;2024-01-07T02:33:03;6.17;83.93
9723;DHT22;4900;49.306;8.500;2024-01-07T02:35:29;6.16;83.85
9723;DHT22;4900;49.306;8.500;2024-01-07T02:37:55;6.13;83.86
9723;DHT22;4900;49.306;8.500;2024-01-07T02:40:20;6.16;83.96
9723;DHT22;4900;49.306;8.500;2024-01-07T02:42:46;6.20;83.80
9723;DHT22;4900;49.306;8.500;2024-01-07T02:45:11;6.23;83.73
9723;DHT22;4900;49.306;8.500;2024-01-07T02:47:37;6.15;83.78
9723;DHT22;4900;49.306;8.500;2024-01-07T02:50:02;6.15;83.86
9723;DHT22;4900;49.306;8.500;2024-01-07T02:52:28;6.19;83.80
9723;DHT22;4900;49.306;8.500;2024-01-07T02:54:53;6.17;83.81
9723;DHT22;4900;49.306;8.500;2024-01-07T02:57:19;6.25;83.71
9723;DHT22;4900;49.306;8.500;2024-01-07T02:59:44;6.23;83.78
9723;DHT22;4900;49.306;8.500;2024-01-07T03:02:09;6.23;83.71
9723;DHT22;4900;49.306;8.500;2024-01-07T03:04:35;6.23;83.62
9723;DHT22;4900;49.306;8.500;2024-01-07T03:07:00;6.22;83.66
9723;DHT22;4900;49.306;8.500;2024-01-07T03:09:26;6.08;83.84
9723;DHT22;4900;49.306;8.500;2024-01-07T03:11:51;6.10;83.96
9723;DHT22;4900;49.306;8.500;2024-01-07T03:14:16;6.12;83.87
9723;DHT22;4900;49.306;8.500;2024-01-07T03:16:45;6.09;83.97
9723;DHT22;4900;49.306;8.500;2024-01-07T03:19:10;6.10;84.01
9723;DHT22;4900;49.306;8.500;2024-01-07T03:21:36;6.10;83.98
9723;DHT22;4900;49.306;8.500;2024-01-07T03:24:01;6.09;84.08
9723;DHT22;4900;49.306;8.500;2024-01-07T03:26:30;6.05;84.11
9723;DHT22;4900;49.306;8.500;2024-01-07T03:28:58;6.09;84.03
9723;DHT22;4900;49.306;8.500;2024-01-07T03:31:25;6.06;83.98
9723;DHT22;4900;49.306;8.500;2024-01-07T03:33:51;6.05;83.94
9723;DHT22;4900;49.306;8.500;2024-01-07T03:36:16;6.08;84.06
9723;DHT22;4900;49.306;8.500;2024-01-07T03:38:42;6.09;84.05
9723;DHT22;4900;49.306;8.500;2024-01-07T03:41:07;6.09;84.00
9723;DHT22;4900;49.306;8.500;2024-01-07T03:43:33;6.10;84.11
9723;DHT22;4900;49.306;8.500;2024-01-07T03:45:59;6.10;84.00
9723;DHT22;4900;49.306;8.500;2024-01-07T03:48:25;6.09;84.20
9723;DHT22;4900;49.306;8.500;2024-01-07T03:50:50;6.12;84.10
9723;DHT22;4900;49.306;8.500;2024-01-07T03:53:16;6.08;84.14
9723;DHT22;4900;49.306;8.500;2024-01-07T03:55:41;6.09;84.19
9723;DHT22;4900;49.306;8.500;2024-01-07T03:58:07;6.09;84.17
9723;DHT22;4900;49.306;8.500;2024-01-07T04:00:34;6.08;84.23
9723;DHT22;4900;49.306;8.500;2024-01-07T04:03:00;6.10;84.14
9723;DHT22;4900;49.306;8.500;2024-01-07T04:05:25;6.13;84.06
9723;DHT22;4900;49.306;8.500;2024-01-07T04:07:50;6.09;84.10
9723;DHT22;4900;49.306;8.500;2024-01-07T04:10:17;6.12;84.17
9723;DHT22;4900;49.306;8.500;2024-01-07T04:12:42;6.06;84.28
9723;DHT22;4900;49.306;8.500;2024-01-07T04:15:08;6.08;84.42
9723;DHT22;4900;49.306;8.500;2024-01-07T04:17:34;6.02;84.40
9723;DHT22;4900;49.306;8.500;2024-01-07T04:19:59;6.03;84.37
9723;DHT22;4900;49.306;8.500;2024-01-07T04:22:25;6.08;84.37
9723;DHT22;4900;49.306;8.500;2024-01-07T04:24:50;6.01;84.39
9723;DHT22;4900;49.306;8.500;2024-01-07T04:27:15;6.06;84.47
9723;DHT22;4900;49.306;8.500;2024-01-07T04:29:41;6.10;84.21
9723;DHT22;4900;49.306;8.500;2024-01-07T04:32:06;6.10;84.20
9723;DHT22;4900;49.306;8.500;2024-01-07T04:34:31;6.12;84.24
9723;DHT22;4900;49.306;8.500;2024-01-07T04:36:57;6.08;84.36
9723;DHT22;4900;49.306;8.500;2024-01-07T04:39:22;6.08;84.27
9723;DHT22;4900;49.306;8.500;2024-01-07T04:41:48;6.02;84.45
9723;DHT22;4900;49.306;8.500;2024-01-07T04:44:13;5.99;84.49
9723;DHT22;4900;49.306;8.500;2024-01-07T04:46:39;6.01;84.43
9723;DHT22;4900;49.306;8.500;2024-01-07T04:49:05;6.03;84.32
9723;DHT22;4900;49.306;8.500;2024-01-07T04:51:34;6.05;84.31
9723;DHT22;4900;49.306;8.500;2024-01-07T04:54:01;6.08;84.29
9723;DHT22;4900;49.306;8.500;2024-01-07T04:56:27;6.09;84.10
9723;DHT22;4900;49.306;8.500;2024-01-07T04:58:53;6.15;83.94
9723;DHT22;4900;49.306;8.500;2024-01-07T05:01:18;6.17;83.95
9723;DHT22;4900;49.306;8.500;2024-01-07T05:03:44;6.17;83.80
9723;DHT22;4900;49.306;8.500;2024-01-07T05:06:09;6.16;83.80
9723;DHT22;4900;49.306;8.500;2024-01-07T05:08:36;6.23;83.66
9723;DHT22;4900;49.306;8.500;2024-01-07T05:11:02;6.23;83.73
9723;DHT22;4900;49.306;8.500;2024-01-07T05:13:28;6.23;83.57
9723;DHT22;4900;49.306;8.500;2024-01-07T05:15:53;6.19;83.65
9723;DHT22;4900;49.306;8.500;2024-01-07T05:18:23;6.25;83.70
9723;DHT22;4900;49.306;8.500;2024-01-07T05:20:50;6.20;83.64
9723;DHT22;4900;49.306;8.500;2024-01-07T05:23:16;6.26;83.59
9723;DHT22;4900;49.306;8.500;2024-01-07T05:25:45;6.23;83.73
9723;DHT22;4900;49.306;8.500;2024-01-07T05:28:11;6.27;83.60
9723;DHT22;4900;49.306;8.500;2024-01-07T05:30:38;6.27;83.67
9723;DHT22;4900;49.306;8.500;2024-01-07T05:33:03;6.26;83.66
9723;DHT22;4900;49.306;8.500;2024-01-07T05:35:29;6.26;83.51
9723;DHT22;4900;49.306;8.500;2024-01-07T05:37:54;6.26;83.51
9723;DHT22;4900;49.306;8.500;2024-01-07T05:40:21;6.22;83.61
9723;DHT22;4900;49.306;8.500;2024-01-07T05:42:46;6.25;83.67
9723;DHT22;4900;49.306;8.500;2024-01-07T05:45:11;6.17;83.70
9723;DHT22;4900;49.306;8.500;2024-01-07T05:47:37;6.16;83.76
9723;DHT22;4900;49.306;8.500;2024-01-07T05:50:02;6.12;83.67
9723;DHT22;4900;49.306;8.500;2024-01-07T05:52:28;6.10;83.63
9723;DHT22;4900;49.306;8.500;2024-01-07T05:54:53;6.10;83.87
9723;DHT22;4900;49.306;8.500;2024-01-07T05:57:19;6.17;83.74
9723;DHT22;4900;49.306;8.500;2024-01-07T05:59:45;6.17;83.66
9723;DHT22;4900;49.306;8.500;2024-01-07T06:02:11;6.16;83.64
9723;DHT22;4900;49.306;8.500;2024-01-07T06:04:38;6.10;83.72
9723;DHT22;4900;49.306;8.500;2024-01-07T06:07:04;6.08;83.98
9723;DHT22;4900;49.306;8.500;2024-01-07T06:09:29;6.16;83.81
9723;DHT22;4900;49.306;8.500;2024-01-07T06:11:55;6.10;83.81
9723;DHT22;4900;49.306;8.500;2024-01-07T06:14:22;6.10;84.01
9723;DHT22;4900;49.306;8.500;2024-01-07T06:16:48;6.05;83.97
9723;DHT22;4900;49.306;8.500;2024-01-07T06:19:13;6.08;84.05
9723;DHT22;4900;49.306;8.500;2024-01-07T06:21:40;6.08;84.02
9723;DHT22;4900;49.306;8.500;2024-01-07T06:24:07;6.06;83.94
9723;DHT22;4900;49.306;8.500;2024-01-07T06:26:33;6.03;84.10
9723;DHT22;4900;49.306;8.500;2024-01-07T06:28:59;6.05;84.12
9723;DHT22;4900;49.306;8.500;2024-01-07T06:31:25;6.08;84.09
9723;DHT22;4900;49.306;8.500;2024-01-07T06:33:51;6.09;84.17
9723;DHT22;4900;49.306;8.500;2024-01-07T06:36:16;6.12;83.97
9723;DHT22;4900;49.306;8.500;2024-01-07T06:38:42;6.13;83.86
9723;DHT22;4900;49.306;8.500;2024-01-07T06:41:07;6.16;84.04
9723;DHT22;4900;49.306;8.500;2024-01-07T06:43:32;6.12;84.01
9723;DHT22;4900;49.306;8.500;2024-01-07T06:45:58;6.12;84.01
9723;DHT22;4900;49.306;8.500;2024-01-07T06:48:24;6.10;84.14
9723;DHT22;4900;49.306;8.500;2024-01-07T06:50:49;6.12;84.06
9723;DHT22;4900;49.306;8.500;2024-01-07T06:53:14;6.13;84.16
9723;DHT22;4900;49.306;8.500;2024-01-07T06:55:41;6.16;83.94
9723;DHT22;4900;49.306;8.500;2024-01-07T06:58:07;6.10;83.95
9723;DHT22;4900;49.306;8.500;2024-01-07T07:00:32;6.10;84.10
9723;DHT22;4900;49.306;8.500;2024-01-07T07:02:57;6.12;84.09
9723;DHT22;4900;49.306;8.500;2024-01-07T07:05:23;6.16;84.16
9723;DHT22;4900;49.306;8.500;2024-01-07T07:07:48;6.16;84.14
9723;DHT22;4900;49.306;8.500;2024-01-07T07:10:14;6.10;84.10
9723;DHT22;4900;49.306;8.500;2024-01-07T07:12:39;6.10;84.28
9723;DHT22;4900;49.306;8.500;2024-01-07T07:15:05;6.15;84.21
9723;DHT22;4900;49.306;8.500;2024-01-07T07:17:30;6.17;84.12
9723;DHT22;4900;49.306;8.500;2024-01-07T07:19:56;6.19;84.03
9723;DHT22;4900;49.306;8.500;2024-01-07T07:22:21;6.22;84.02
9723;DHT22;4900;49.306;8.500;2024-01-07T07:24:46;6.20;83.94
9723;DHT22;4900;49.306;8.500;2024-01-07T07:27:12;6.19;84.05
9723;DHT22;4900;49.306;8.500;2024-01-07T07:29:38;6.12;84.20
9723;DHT22;4900;49.306;8.500;2024-01-07T07:32:03;6.12;84.25
9723;DHT22;4900;49.306;8.500;2024-01-07T07:34:29;6.15;84.32
9723;DHT22;4900;49.306;8.500;2024-01-07T07:36:54;6.12;84.27
9723;DHT22;4900;49.306;8.500;2024-01-07T07:39:20;6.10;84.32
9723;DHT22;4900;49.306;8.500;2024-01-07T07:41:46;6.12;84.28
9723;DHT22;4900;49.306;8.500;2024-01-07T07:44:11;6.10;84.38
9723;DHT22;4900;49.306;8.500;2024-01-07T07:46:37;6.15;84.15
9723;DHT22;4900;49.306;8.500;2024-01-07T07:49:02;6.13;84.24
9723;DHT22;4900;49.306;8.500;2024-01-07T07:51:28;6.12;84.38
9723;DHT22;4900;49.306;8.500;2024-01-07T07:53:53;6.08;84.38
9723;DHT22;4900;49.306;8.500;2024-01-07T07:56:18;6.17;84.31
9723;DHT22;4900;49.306;8.500;2024-01-07T07:58:44;6.16;84.20
9723;DHT22;4900;49.306;8.500;2024-01-07T08:01:09;6.16;84.19
9723;DHT22;4900;49.306;8.500;2024-01-07T08:03:35;6.15;84.22
9723;DHT22;4900;49.306;8.500;2024-01-07T08:06:02;6.09;84.40
9723;DHT22;4900;49.306;8.500;2024-01-07T08:08:27;6.10;84.21
9723;DHT22;4900;49.306;8.500;2024-01-07T08:10:52;6.13;84.37
9723;DHT22;4900;49.306;8.500;2024-01-07T08:13:19;6.10;84.26
9723;DHT22;4900;49.306;8.500;2024-01-07T08:15:44;6.12;84.23
9723;DHT22;4900;49.306;8.500;2024-01-07T08:18:10;6.12;84.18
9723;DHT22;4900;49.306;8.500;2024-01-07T08:20:35;6.17;84.08
9723;DHT22;4900;49.306;8.500;2024-01-07T08:23:01;6.16;84.10
9723;DHT22;4900;49.306;8.500;2024-01-07T08:25:26;6.12;84.21
9723;DHT22;4900;49.306;8.500;2024-01-07T08:27:52;6.08;84.34
9723;DHT22;4900;49.306;8.500;2024-01-07T08:30:17;6.15;84.26
9723;DHT22;4900;49.306;8.500;2024-01-07T08:32:42;6.10;84.47
9723;DHT22;4900;49.306;8.500;2024-01-07T08:35:08;6.15;84.37
9723;DHT22;4900;49.306;8.500;2024-01-07T08:37:34;6.26;84.00
9723;DHT22;4900;49.306;8.500;2024-01-07T08:40:00;6.30;83.98
9723;DHT22;4900;49.306;8.500;2024-01-07T08:42:27;6.32;83.89
9723;DHT22;4900;49.306;8.500;2024-01-07T08:44:52;6.36;83.72
9723;DHT22;4900;49.306;8.500;2024-01-07T08:47:18;6.27;83.54
9723;DHT22;4900;49.306;8.500;2024-01-07T08:49:43;6.36;83.73
9723;DHT22;4900;49.306;8.500;2024-01-07T08:52:08;6.43;83.56
9723;DHT22;4900;49.306;8.500;2024-01-07T08:54:34;6.40;83.49
9723;DHT22;4900;49.306;8.500;2024-01-07T08:57:00;6.47;83.29
9723;DHT22;4900;49.306;8.500;2024-01-07T08:59:25;6.47;83.29
9723;DHT22;4900;49.306;8.500;2024-01-07T09:01:51;6.50;83.23
9723;DHT22;4900;49.306;8.500;2024-01-07T09:04:16;6.53;83.17
9723;DHT22;4900;49.306;8.500;2024-01-07T09:06:44;6.57;83.05
9723;DHT22;4900;49.306;8.500;2024-01-07T09:09:09;6.61;83.01
9723;DHT22;4900;49.306;8.500;2024-01-07T09:11:36;6.53;82.90
9723;DHT22;4900;49.306;8.500;2024-01-07T09:14:02;6.54;82.76
9723;DHT22;4900;49.306;8.500;2024-01-07T09:16:28;6.61;82.60
9723;DHT22;4900;49.306;8.500;2024-01-07T09:18:54;6.51;82.59
9723;DHT22;4900;49.306;8.500;2024-01-07T09:21:20;6.48;82.64
9723;DHT22;4900;49.306;8.500;2024-01-07T09:23:45;6.48;82.24
9723;DHT22;4900;49.306;8.500;2024-01-07T09:26:10;6.55;82.22
9723;DHT22;4900;49.306;8.500;2024-01-07T09:28:36;6.55;82.02
9723;DHT22;4900;49.306;8.500;2024-01-07T09:31:02;6.64;81.80
9723;DHT22;4900;49.306;8.500;2024-01-07T09:33:28;6.70;81.59
9723;DHT22;4900;49.306;8.500;2024-01-07T09:35:54;6.74;81.49
9723;DHT22;4900;49.306;8.500;2024-01-07T09:38:20;6.70;81.23
9723;DHT22;4900;49.306;8.500;2024-01-07T09:40:46;6.78;81.18
9723;DHT22;4900;49.306;8.500;2024-01-07T09:43:11;6.74;80.72
9723;DHT22;4900;49.306;8.500;2024-01-07T09:45:38;6.75;80.47
9723;DHT22;4900;49.306;8.500;2024-01-07T09:48:06;6.81;80.38
9723;DHT22;4900;49.306;8.500;2024-01-07T09:50:32;6.88;80.14
9723;DHT22;4900;49.306;8.500;2024-01-07T09:52:58;6.85;79.76
9723;DHT22;4900;49.306;8.500;2024-01-07T09:58:11;6.99;79.66
9723;DHT22;4900;49.306;8.500;2024-01-07T10:00:36;6.88;79.58
9723;DHT22;4900;49.306;8.500;2024-01-07T10:03:02;6.95;79.31
9723;DHT22;4900;49.306;8.500;2024-01-07T10:05:28;7.00;79.24
9723;DHT22;4900;49.306;8.500;2024-01-07T10:07:54;7.00;79.05
9723;DHT22;4900;49.306;8.500;2024-01-07T10:10:22;7.05;78.76
9723;DHT22;4900;49.306;8.500;2024-01-07T10:12:47;7.07;78.67
9723;DHT22;4900;49.306;8.500;2024-01-07T10:15:13;7.20;78.56
9723;DHT22;4900;49.306;8.500;2024-01-07T10:17:42;7.13;78.17
9723;DHT22;4900;49.306;8.500;2024-01-07T10:20:08;7.17;77.96
9723;DHT22;4900;49.306;8.500;2024-01-07T10:22:38;7.26;77.84
9723;DHT22;4900;49.306;8.500;2024-01-07T10:25:04;7.20;77.40
9723;DHT22;4900;49.306;8.500;2024-01-07T10:27:29;7.16;77.42
9723;DHT22;4900;49.306;8.500;2024-01-07T10:29:58;7.26;77.44
9723;DHT22;4900;49.306;8.500;2024-01-07T10:32:23;7.19;77.41
9723;DHT22;4900;49.306;8.500;2024-01-07T10:34:51;7.17;77.48
9723;DHT22;4900;49.306;8.500;2024-01-07T10:37:18;7.26;77.26
9723;DHT22;4900;49.306;8.500;2024-01-07T10:39:44;7.23;77.43
9723;DHT22;4900;49.306;8.500;2024-01-07T10:42:11;7.19;77.38
9723;DHT22;4900;49.306;8.500;2024-01-07T10:44:38;7.15;77.28
9723;DHT22;4900;49.306;8.500;2024-01-07T10:47:06;7.10;77.29
9723;DHT22;4900;49.306;8.500;2024-01-07T10:49:35;7.02;77.14
9723;DHT22;4900;49.306;8.500;2024-01-07T10:52:06;6.95;77.28
9723;DHT22;4900;49.306;8.500;2024-01-07T10:54:33;6.88;77.36
9723;DHT22;4900;49.306;8.500;2024-01-07T10:59:53;6.85;77.08
9723;DHT22;4900;49.306;8.500;2024-01-07T11:02:20;6.81;76.79
9723;DHT22;4900;49.306;8.500;2024-01-07T11:07:57;6.74;77.05
9723;DHT22;4900;49.306;8.500;2024-01-07T11:10:31;6.71;77.04
9723;DHT22;4900;49.306;8.500;2024-01-07T11:12:59;6.70;76.87
9723;DHT22;4900;49.306;8.500;2024-01-07T11:18:18;6.61;76.54
9723;DHT22;4900;49.306;8.500;2024-01-07T11:20:45;6.72;76.43
9723;DHT22;4900;49.306;8.500;2024-01-07T11:23:34;6.78;76.28
9723;DHT22;4900;49.306;8.500;2024-01-07T11:26:05;6.78;75.46
9723;DHT22;4900;49.306;8.500;2024-01-07T11:28:49;6.88;75.56
9723;DHT22;4900;49.306;8.500;2024-01-07T11:31:17;6.98;75.41
9723;DHT22;4900;49.306;8.500;2024-01-07T11:33:44;7.16;75.19
9723;DHT22;4900;49.306;8.500;2024-01-07T11:36:17;7.07;74.71
9723;DHT22;4900;49.306;8.500;2024-01-07T11:38:48;7.20;74.77
9723;DHT22;4900;49.306;8.500;2024-01-07T11:41:15;7.41;74.18
9723;DHT22;4900;49.306;8.500;2024-01-07T11:43:54;7.44;74.01
9723;DHT22;4900;49.306;8.500;2024-01-07T11:46:21;7.35;73.78
9723;DHT22;4900;49.306;8.500;2024-01-07T11:48:48;7.41;73.44
9723;DHT22;4900;49.306;8.500;2024-01-07T11:51:13;7.27;72.85
9723;DHT22;4900;49.306;8.500;2024-01-07T11:53:40;7.16;72.66
9723;DHT22;4900;49.306;8.500;2024-01-07T11:56:08;7.17;73.06
9723;DHT22;4900;49.306;8.500;2024-01-07T11:58:33;7.13;72.97
9723;DHT22;4900;49.306;8.500;2024-01-07T12:00:59;6.95;72.81
9723;DHT22;4900;49.306;8.500;2024-01-07T12:03:24;6.72;72.58
9723;DHT22;4900;49.306;8.500;2024-01-07T12:05:50;6.79;72.98
9723;DHT22;4900;49.306;8.500;2024-01-07T12:08:15;6.85;73.05
9723;DHT22;4900;49.306;8.500;2024-01-07T12:10:41;6.82;72.87
9723;DHT22;4900;49.306;8.500;2024-01-07T12:13:07;6.70;72.86
9723;DHT22;4900;49.306;8.500;2024-01-07T12:15:34;6.78;72.83
9723;DHT22;4900;49.306;8.500;2024-01-07T12:17:59;6.78;72.80
9723;DHT22;4900;49.306;8.500;2024-01-07T12:20:27;6.70;72.82
9723;DHT22;4900;49.306;8.500;2024-01-07T12:22:56;6.70;72.94
9723;DHT22;4900;49.306;8.500;2024-01-07T12:25:23;6.77;73.02
9723;DHT22;4900;49.306;8.500;2024-01-07T12:27:50;6.61;72.75
9723;DHT22;4900;49.306;8.500;2024-01-07T12:30:19;6.48;72.79
9723;DHT22;4900;49.306;8.500;2024-01-07T12:32:44;6.51;72.71
9723;DHT22;4900;49.306;8.500;2024-01-07T12:35:10;6.47;73.12
9723;DHT22;4900;49.306;8.500;2024-01-07T12:37:37;6.51;72.97
9723;DHT22;4900;49.306;8.500;2024-01-07T12:40:02;6.45;72.57
9723;DHT22;4900;49.306;8.500;2024-01-07T12:42:28;6.19;72.79
9723;DHT22;4900;49.306;8.500;2024-01-07T12:44:53;6.03;72.99
9723;DHT22;4900;49.306;8.500;2024-01-07T12:47:19;6.15;73.18
9723;DHT22;4900;49.306;8.500;2024-01-07T12:49:44;6.09;73.29
9723;DHT22;4900;49.306;8.500;2024-01-07T12:52:10;6.02;73.45
9723;DHT22;4900;49.306;8.500;2024-01-07T12:54:36;5.89;73.27
9723;DHT22;4900;49.306;8.500;2024-01-07T12:57:02;5.87;73.32
9723;DHT22;4900;49.306;8.500;2024-01-07T12:59:27;5.95;73.38
9723;DHT22;4900;49.306;8.500;2024-01-07T13:01:53;5.85;73.09
9723;DHT22;4900;49.306;8.500;2024-01-07T13:04:18;5.85;73.22
9723;DHT22;4900;49.306;8.500;2024-01-07T13:06:44;5.81;73.25
9723;DHT22;4900;49.306;8.500;2024-01-07T13:09:10;5.64;73.30
9723;DHT22;4900;49.306;8.500;2024-01-07T13:11:36;5.81;73.35
9723;DHT22;4900;49.306;8.500;2024-01-07T13:14:01;5.85;73.32
9723;DHT22;4900;49.306;8.500;2024-01-07T13:16:27;5.78;73.23
9723;DHT22;4900;49.306;8.500;2024-01-07T13:18:54;5.75;73.03
9723;DHT22;4900;49.306;8.500;2024-01-07T13:21:19;5.71;73.22
9723;DHT22;4900;49.306;8.500;2024-01-07T13:23:45;5.67;73.36
9723;DHT22;4900;49.306;8.500;2024-01-07T13:26:11;5.77;73.26
9723;DHT22;4900;49.306;8.500;2024-01-07T13:28:36;5.61;72.95
9723;DHT22;4900;49.306;8.500;2024-01-07T13:31:02;5.60;72.83
9723;DHT22;4900;49.306;8.500;2024-01-07T13:33:29;5.63;72.78
9723;DHT22;4900;49.306;8.500;2024-01-07T13:35:54;5.66;72.64
9723;DHT22;4900;49.306;8.500;2024-01-07T13:38:20;5.68;72.88
9723;DHT22;4900;49.306;8.500;2024-01-07T13:40:45;5.67;72.29
9723;DHT22;4900;49.306;8.500;2024-01-07T13:43:11;5.57;72.33
9723;DHT22;4900;49.306;8.500;2024-01-07T13:45:37;5.71;72.62
9723;DHT22;4900;49.306;8.500;2024-01-07T13:48:02;5.74;72.63
9723;DHT22;4900;49.306;8.500;2024-01-07T13:50:28;5.73;72.23
9723;DHT22;4900;49.306;8.500;2024-01-07T13:52:54;5.81;72.30
9723;DHT22;4900;49.306;8.500;2024-01-07T13:55:19;5.77;72.09
9723;DHT22;4900;49.306;8.500;2024-01-07T13:57:44;5.66;71.67
9723;DHT22;4900;49.306;8.500;2024-01-07T14:00:10;5.53;71.85
9723;DHT22;4900;49.306;8.500;2024-01-07T14:02:37;5.51;72.00
9723;DHT22;4900;49.306;8.500;2024-01-07T14:05:04;5.53;71.71
9723;DHT22;4900;49.306;8.500;2024-01-07T14:07:32;5.56;72.13
9723;DHT22;4900;49.306;8.500;2024-01-07T14:09:59;5.51;71.64
9723;DHT22;4900;49.306;8.500;2024-01-07T14:12:26;5.54;71.88
9723;DHT22;4900;49.306;8.500;2024-01-07T14:14:51;5.51;71.97
9723;DHT22;4900;49.306;8.500;2024-01-07T14:17:16;5.48;72.12
9723;DHT22;4900;49.306;8.500;2024-01-07T14:19:42;5.46;72.20
9723;DHT22;4900;49.306;8.500;2024-01-07T14:22:11;5.47;71.76
9723;DHT22;4900;49.306;8.500;2024-01-07T14:24:38;5.27;71.91
9723;DHT22;4900;49.306;8.500;2024-01-07T14:27:03;5.29;71.77
9723;DHT22;4900;49.306;8.500;2024-01-07T14:29:29;5.32;71.68
9723;DHT22;4900;49.306;8.500;2024-01-07T14:31:55;5.16;71.36
9723;DHT22;4900;49.306;8.500;2024-01-07T14:34:20;5.12;71.87
9723;DHT22;4900;49.306;8.500;2024-01-07T14:36:45;5.09;71.63
9723;DHT22;4900;49.306;8.500;2024-01-07T14:39:11;5.02;71.56
9723;DHT22;4900;49.306;8.500;2024-01-07T14:41:39;5.02;71.63
9723;DHT22;4900;49.306;8.500;2024-01-07T14:44:04;4.99;71.55
9723;DHT22;4900;49.306;8.500;2024-01-07T14:46:30;4.94;71.63
9723;DHT22;4900;49.306;8.500;2024-01-07T14:48:55;4.81;71.43
9723;DHT22;4900;49.306;8.500;2024-01-07T14:51:21;4.69;71.44
9723;DHT22;4900;49.306;8.500;2024-01-07T14:53:46;4.81;71.61
9723;DHT22;4900;49.306;8.500;2024-01-07T14:56:12;4.74;71.74
9723;DHT22;4900;49.306;8.500;2024-01-07T14:58:37;4.64;71.57
9723;DHT22;4900;49.306;8.500;2024-01-07T15:01:02;4.60;71.61
9723;DHT22;4900;49.306;8.500;2024-01-07T15:03:29;4.59;71.62
9723;DHT22;4900;49.306;8.500;2024-01-07T15:05:55;4.57;71.83
9723;DHT22;4900;49.306;8.500;2024-01-07T15:08:21;4.57;71.70
9723;DHT22;4900;49.306;8.500;2024-01-07T15:10:47;4.52;71.77
9723;DHT22;4900;49.306;8.500;2024-01-07T15:13:12;4.48;71.60
9723;DHT22;4900;49.306;8.500;2024-01-07T15:15:38;4.54;71.68
9723;DHT22;4900;49.306;8.500;2024-01-07T15:18:04;4.50;71.76
9723;DHT22;4900;49.306;8.500;2024-01-07T15:20:29;4.56;71.69
9723;DHT22;4900;49.306;8.500;2024-01-07T15:22:55;4.39;71.79
9723;DHT22;4900;49.306;8.500;2024-01-07T15:25:20;4.39;71.61
9723;DHT22;4900;49.306;8.500;2024-01-07T15:27:46;4.39;71.59
9723;DHT22;4900;49.306;8.500;2024-01-07T15:30:12;4.36;71.60
9723;DHT22;4900;49.306;8.500;2024-01-07T15:32:37;4.32;71.48
9723;DHT22;4900;49.306;8.500;2024-01-07T15:35:04;4.32;71.83
9723;DHT22;4900;49.306;8.500;2024-01-07T15:37:30;4.32;71.64
9723;DHT22;4900;49.306;8.500;2024-01-07T15:39:56;4.24;71.87
9723;DHT22;4900;49.306;8.500;2024-01-07T15:42:21;4.30;71.74
9723;DHT22;4900;49.306;8.500;2024-01-07T15:44:48;4.32;71.74
9723;DHT22;4900;49.306;8.500;2024-01-07T15:47:13;4.39;72.12
9723;DHT22;4900;49.306;8.500;2024-01-07T15:49:39;4.36;72.10
9723;DHT22;4900;49.306;8.500;2024-01-07T15:52:05;4.21;72.23
9723;DHT22;4900;49.306;8.500;2024-01-07T15:54:30;4.26;71.99
9723;DHT22;4900;49.306;8.500;2024-01-07T15:56:56;4.09;72.25
9723;DHT22;4900;49.306;8.500;2024-01-07T15:59:22;4.16;72.29
9723;DHT22;4900;49.306;8.500;2024-01-07T16:01:48;4.08;72.20
9723;DHT22;4900;49.306;8.500;2024-01-07T16:04:14;4.14;72.36
9723;DHT22;4900;49.306;8.500;2024-01-07T16:06:43;4.11;72.12
9723;DHT22;4900;49.306;8.500;2024-01-07T16:09:11;3.91;71.84
9723;DHT22;4900;49.306;8.500;2024-01-07T16:11:37;3.90;71.72
9723;DHT22;4900;49.306;8.500;2024-01-07T16:14:02;3.95;71.98
9723;DHT22;4900;49.306;8.500;2024-01-07T16:16:28;3.94;72.05
9723;DHT22;4900;49.306;8.500;2024-01-07T16:18:53;3.93;71.89
9723;DHT22;4900;49.306;8.500;2024-01-07T16:21:19;3.91;72.00